Time;durP1;ratioP1;P1;durP2;ratioP2;P2;SDS_P1;SDS_P2;PMS_P1;PMS_P2;Temp;Humidity;BMP_temperature;BMP_pressure;BME280_temperature;BME280_humidity;BME280_pressure;Samples;Min_cycle;Max_cycle;Signal;HPM_P1;HPM_P2
2024/01/24 00:00:39;;;;;;;1.00;0.90;;;8.30;99.90;;;;;;5059680;28;20208;-78
2024/01/24 00:03:07;;;;;;;2.25;1.27;;;8.40;99.90;;;;;;5052226;28;20236;-78
2024/01/24 00:05:34;;;;;;;1.50;1.10;;;8.40;99.90;;;;;;5054708;28;20230;-78
2024/01/24 00:08:00;;;;;;;4.90;1.30;;;8.50;99.90;;;;;;5059350;28;20229;-78
2024/01/24 00:10:27;;;;;;;1.90;1.20;;;8.50;99.90;;;;;;5056174;28;20210;-78
2024/01/24 00:12:55;;;;;;;2.25;0.98;;;8.50;99.90;;;;;;5062194;28;20227;-78
2024/01/24 00:15:22;;;;;;;1.77;1.05;;;8.60;99.90;;;;;;5053773;28;20238;-78
2024/01/24 00:17:49;;;;;;;2.97;1.00;;;8.60;99.90;;;;;;5055734;28;20204;-78
2024/01/24 00:20:17;;;;;;;2.00;1.25;;;8.60;99.90;;;;;;5052975;28;20206;-78
2024/01/24 00:22:43;;;;;;;0.90;0.80;;;8.60;99.90;;;;;;5058823;28;20234;-78
2024/01/24 00:25:10;;;;;;;2.67;1.15;;;8.70;99.90;;;;;;5054398;28;20219;-78
2024/01/24 00:27:37;;;;;;;1.92;0.80;;;8.70;99.90;;;;;;5046890;28;20680;-78
2024/01/24 00:30:05;;;;;;;1.80;1.08;;;8.70;99.90;;;;;;5047170;28;20214;-79
2024/01/24 00:32:31;;;;;;;0.90;0.80;;;8.80;99.90;;;;;;5046870;28;20224;-79
2024/01/24 00:34:58;;;;;;;2.28;1.10;;;8.80;99.90;;;;;;5050920;28;20211;-79
2024/01/24 00:37:26;;;;;;;2.97;1.15;;;8.80;99.90;;;;;;5051068;28;20604;-79
2024/01/24 00:39:53;;;;;;;2.38;1.08;;;8.80;99.90;;;;;;5053738;28;20216;-79
2024/01/24 00:42:19;;;;;;;1.42;1.05;;;8.80;99.90;;;;;;5055372;28;20235;-78
2024/01/24 00:44:50;;;;;;;1.00;0.90;;;8.90;99.90;;;;;;5059081;28;20286;-78
2024/01/24 00:47:17;;;;;;;1.83;0.90;;;8.90;99.90;;;;;;5056776;28;20211;-79
2024/01/24 00:49:44;;;;;;;1.45;1.08;;;8.90;99.90;;;;;;5055098;28;20227;-79
2024/01/24 00:52:11;;;;;;;1.65;1.13;;;9.00;99.90;;;;;;5055190;28;20236;-79
2024/01/24 00:54:39;;;;;;;1.00;0.90;;;9.00;99.90;;;;;;5055295;28;20195;-79
2024/01/24 00:57:06;;;;;;;1.20;1.10;;;9.00;99.90;;;;;;5056436;28;20212;-79
2024/01/24 00:59:32;;;;;;;1.55;1.00;;;9.00;99.90;;;;;;5058096;28;20236;-79
2024/01/24 01:01:59;;;;;;;1.88;1.02;;;9.00;99.90;;;;;;5065788;28;20243;-78
2024/01/24 01:04:26;;;;;;;2.20;0.90;;;9.00;99.90;;;;;;5062613;28;20210;-79
2024/01/24 01:06:53;;;;;;;1.10;0.98;;;9.00;99.90;;;;;;5060892;28;20204;-80
2024/01/24 01:09:19;;;;;;;1.48;0.95;;;9.00;99.90;;;;;;5058395;28;20215;-79
2024/01/24 01:11:47;;;;;;;1.17;1.08;;;9.10;99.90;;;;;;5061532;28;20657;-79
2024/01/24 01:14:14;;;;;;;1.35;1.05;;;9.10;99.90;;;;;;5067562;28;20218;-79
2024/01/24 01:16:41;;;;;;;1.48;0.98;;;9.20;99.90;;;;;;5065252;28;20213;-80
2024/01/24 01:19:08;;;;;;;4.35;1.10;;;9.20;99.90;;;;;;5058875;28;20208;-79
2024/01/24 01:21:35;;;;;;;2.55;1.08;;;9.20;99.90;;;;;;5064336;28;20247;-79
2024/01/24 01:24:02;;;;;;;1.42;0.88;;;9.20;99.90;;;;;;5066662;28;20201;-79
2024/01/24 01:26:32;;;;;;;1.95;1.15;;;9.20;99.90;;;;;;5061622;28;20236;-80
2024/01/24 01:29:00;;;;;;;3.45;1.02;;;9.20;99.90;;;;;;5063240;28;20586;-79
2024/01/24 01:31:27;;;;;;;2.00;1.10;;;9.20;99.90;;;;;;5062986;28;20296;-79
2024/01/24 01:33:54;;;;;;;1.38;1.00;;;9.20;99.90;;;;;;5063019;28;20233;-79
2024/01/24 01:36:21;;;;;;;2.10;0.95;;;9.10;99.90;;;;;;5061213;28;20225;-79
2024/01/24 01:38:48;;;;;;;2.85;1.45;;;9.10;99.90;;;;;;5065775;28;20207;-79
2024/01/24 01:41:14;;;;;;;0.90;0.80;;;9.10;99.90;;;;;;5063547;28;20217;-79
2024/01/24 01:43:41;;;;;;;2.60;1.30;;;9.10;99.90;;;;;;5065473;28;20311;-78
2024/01/24 01:46:14;;;;;;;2.95;1.23;;;9.20;99.90;;;;;;5066364;28;20220;-79
2024/01/24 01:48:41;;;;;;;1.20;0.93;;;9.20;99.90;;;;;;5059907;28;20210;-79
2024/01/24 01:51:08;;;;;;;1.70;1.60;;;9.20;99.90;;;;;;5063319;28;20209;-79
2024/01/24 01:53:38;;;;;;;2.08;1.20;;;9.10;99.90;;;;;;5067631;28;20243;-79
2024/01/24 01:56:07;;;;;;;3.30;1.48;;;9.20;99.90;;;;;;5065844;28;20206;-79
2024/01/24 01:58:34;;;;;;;2.47;1.10;;;9.20;99.90;;;;;;5056429;28;20291;-79
2024/01/24 02:01:02;;;;;;;1.20;0.80;;;9.20;99.90;;;;;;5052772;28;20208;-79
2024/01/24 02:03:30;;;;;;;1.00;0.90;;;9.10;99.90;;;;;;5054584;28;20231;-79
2024/01/24 02:05:57;;;;;;;2.10;1.05;;;9.20;99.90;;;;;;5053932;28;20314;-79
2024/01/24 02:08:24;;;;;;;2.95;1.00;;;9.20;99.90;;;;;;5052790;28;20205;-78
2024/01/24 02:10:51;;;;;;;2.75;1.35;;;9.10;99.90;;;;;;5060770;28;20295;-79
2024/01/24 02:13:18;;;;;;;2.00;1.05;;;9.10;99.90;;;;;;5054038;28;20239;-79
2024/01/24 02:15:45;;;;;;;1.00;0.90;;;9.20;99.90;;;;;;5063115;28;20201;-79
2024/01/24 02:18:11;;;;;;;2.53;1.05;;;9.10;99.90;;;;;;5063696;28;20205;-79
2024/01/24 02:20:39;;;;;;;0.90;0.80;;;9.10;99.90;;;;;;5061934;28;20221;-80
2024/01/24 02:23:09;;;;;;;1.17;1.05;;;9.20;99.90;;;;;;5062795;28;20235;-80
2024/01/24 02:25:37;;;;;;;1.70;1.17;;;9.20;99.90;;;;;;5066699;28;20587;-79
2024/01/24 02:28:05;;;;;;;1.13;0.80;;;9.20;99.90;;;;;;5065322;28;20280;-79
2024/01/24 02:30:32;;;;;;;1.60;1.10;;;9.30;99.90;;;;;;5067154;28;20273;-79
2024/01/24 02:32:59;;;;;;;2.05;1.17;;;9.30;99.90;;;;;;5066074;28;20308;-78
2024/01/24 02:35:27;;;;;;;0.80;0.70;;;9.20;99.90;;;;;;5062748;28;20209;-80
2024/01/24 02:37:54;;;;;;;1.10;1.00;;;9.20;99.90;;;;;;5064609;28;20205;-79
2024/01/24 02:40:21;;;;;;;2.40;1.08;;;9.20;99.90;;;;;;5061695;28;20212;-80
2024/01/24 02:42:49;;;;;;;1.50;1.00;;;9.20;99.90;;;;;;5062866;28;20228;-80
2024/01/24 02:45:16;;;;;;;2.15;1.05;;;9.20;99.90;;;;;;5065381;28;20245;-79
2024/01/24 02:47:42;;;;;;;1.45;0.98;;;9.20;99.90;;;;;;5060037;28;20205;-79
2024/01/24 02:50:10;;;;;;;3.58;1.13;;;9.30;99.90;;;;;;5062003;28;20666;-79
2024/01/24 02:52:37;;;;;;;0.95;0.70;;;9.20;99.90;;;;;;5067430;28;20224;-79
2024/01/24 02:55:04;;;;;;;1.00;0.80;;;9.30;99.90;;;;;;5065538;28;20212;-80
2024/01/24 02:57:31;;;;;;;1.45;0.90;;;9.20;99.90;;;;;;5063735;28;20205;-79
2024/01/24 02:59:59;;;;;;;2.00;1.00;;;9.20;99.90;;;;;;5064492;28;20215;-80
2024/01/24 03:02:26;;;;;;;1.08;0.90;;;9.30;99.90;;;;;;5063325;28;20224;-80
2024/01/24 03:04:53;;;;;;;0.90;0.70;;;9.30;99.90;;;;;;5066786;28;20267;-81
2024/01/24 03:07:19;;;;;;;0.95;0.80;;;9.30;99.90;;;;;;5066129;28;20650;-80
2024/01/24 03:09:46;;;;;;;1.13;0.85;;;9.20;99.90;;;;;;5066080;28;20204;-80
2024/01/24 03:12:13;;;;;;;2.90;1.10;;;9.20;99.90;;;;;;5065902;28;20227;-80
2024/01/24 03:14:40;;;;;;;1.80;0.80;;;9.30;99.90;;;;;;5060660;28;20209;-80
2024/01/24 03:17:09;;;;;;;1.90;1.10;;;9.30;99.90;;;;;;5066985;28;20235;-79
2024/01/24 03:19:35;;;;;;;1.17;1.05;;;9.20;99.90;;;;;;5064171;28;20208;-79
2024/01/24 03:22:02;;;;;;;2.15;0.93;;;9.20;99.90;;;;;;5065217;28;20231;-80
2024/01/24 03:24:28;;;;;;;0.88;0.82;;;9.20;99.90;;;;;;5065046;28;20213;-79
2024/01/24 03:26:55;;;;;;;1.80;0.90;;;9.20;99.90;;;;;;5066159;28;20254;-80
2024/01/24 03:29:21;;;;;;;1.00;0.90;;;9.30;99.90;;;;;;5059490;28;20209;-80
2024/01/24 03:31:48;;;;;;;1.23;0.90;;;9.30;99.90;;;;;;5052222;28;20213;-79
2024/01/24 03:34:17;;;;;;;3.35;1.25;;;9.30;99.90;;;;;;5053064;28;20224;-79
2024/01/24 03:36:43;;;;;;;1.10;0.80;;;9.30;99.90;;;;;;5056291;28;20288;-80
2024/01/24 03:39:10;;;;;;;2.90;1.10;;;9.30;99.90;;;;;;5056167;28;20209;-79
2024/01/24 03:41:37;;;;;;;5.20;1.08;;;9.40;99.90;;;;;;5057855;28;20203;-79
2024/01/24 03:44:04;;;;;;;1.17;0.93;;;9.40;99.90;;;;;;5060386;28;20212;-80
2024/01/24 03:46:32;;;;;;;1.13;0.82;;;9.40;99.90;;;;;;5059319;28;20225;-80
2024/01/24 03:48:58;;;;;;;1.08;0.95;;;9.40;99.90;;;;;;5059491;28;20235;-79
2024/01/24 03:51:28;;;;;;;1.27;0.90;;;9.40;99.90;;;;;;5060959;28;20214;-81
2024/01/24 03:53:54;;;;;;;3.88;1.10;;;9.40;99.90;;;;;;5061823;28;20216;-81
2024/01/24 03:56:21;;;;;;;1.08;0.95;;;9.50;99.90;;;;;;5053508;28;20270;-81
2024/01/24 03:58:48;;;;;;;2.42;1.23;;;9.50;99.90;;;;;;5051515;28;20212;-79
2024/01/24 04:01:16;;;;;;;1.00;0.90;;;9.50;99.90;;;;;;5052804;28;20213;-81
2024/01/24 04:03:43;;;;;;;4.38;1.50;;;9.50;99.90;;;;;;5054020;28;20229;-81
2024/01/24 04:06:10;;;;;;;3.63;0.98;;;9.50;99.90;;;;;;5051608;28;20611;-80
2024/01/24 04:08:38;;;;;;;1.10;0.90;;;9.60;99.90;;;;;;5045899;28;20705;-80
2024/01/24 04:11:04;;;;;;;1.08;0.85;;;9.60;99.90;;;;;;5045725;28;20210;-80
2024/01/24 04:13:32;;;;;;;4.63;1.13;;;9.60;99.90;;;;;;5045053;28;20229;-80
2024/01/24 04:15:59;;;;;;;1.20;1.00;;;9.60;99.90;;;;;;5044572;28;20209;-81
2024/01/24 04:18:26;;;;;;;1.00;0.85;;;9.60;99.90;;;;;;5045718;28;20206;-80
2024/01/24 04:20:52;;;;;;;6.72;1.45;;;9.60;99.90;;;;;;5044918;28;20198;-81
2024/01/24 04:23:19;;;;;;;0.95;0.85;;;9.60;99.90;;;;;;5044763;28;20237;-81
2024/01/24 04:25:49;;;;;;;2.30;1.00;;;9.60;99.90;;;;;;5044271;28;20321;-80
2024/01/24 04:28:15;;;;;;;2.10;1.10;;;9.60;99.90;;;;;;5047755;28;20675;-80
2024/01/24 04:30:42;;;;;;;1.88;1.05;;;9.70;99.90;;;;;;5053365;28;20219;-80
2024/01/24 04:33:10;;;;;;;3.00;1.25;;;9.70;99.90;;;;;;5053656;28;20222;-81
2024/01/24 04:35:37;;;;;;;1.65;0.98;;;9.80;99.90;;;;;;5052491;28;20229;-81
2024/01/24 04:38:04;;;;;;;2.25;1.50;;;9.80;99.90;;;;;;5052022;28;20480;-82
2024/01/24 04:40:31;;;;;;;1.42;0.80;;;9.80;99.90;;;;;;5055285;28;20197;-80
2024/01/24 04:42:59;;;;;;;1.85;0.93;;;9.80;99.90;;;;;;5051127;28;20303;-79
2024/01/24 04:45:26;;;;;;;1.27;0.98;;;9.90;99.90;;;;;;5039066;28;20597;-78
2024/01/24 04:47:53;;;;;;;0.93;0.85;;;9.90;99.90;;;;;;5036177;28;20224;-79
2024/01/24 04:50:19;;;;;;;1.35;1.17;;;10.00;99.90;;;;;;5046425;28;20212;-79
2024/01/24 04:52:46;;;;;;;1.13;0.98;;;10.00;99.90;;;;;;5052526;28;20232;-79
2024/01/24 04:55:13;;;;;;;0.80;0.80;;;10.10;99.90;;;;;;5050889;28;20216;-78
2024/01/24 04:57:40;;;;;;;1.05;0.80;;;10.10;99.90;;;;;;5043609;28;20204;-78
2024/01/24 05:00:11;;;;;;;1.70;1.40;;;10.20;99.90;;;;;;5052332;28;20208;-78
2024/01/24 05:02:38;;;;;;;1.20;0.80;;;10.20;99.90;;;;;;5051438;28;20611;-78
2024/01/24 05:05:06;;;;;;;1.73;1.10;;;10.30;99.90;;;;;;5044694;28;20209;-78
2024/01/24 05:07:33;;;;;;;1.27;0.80;;;10.30;99.90;;;;;;5042284;28;20312;-78
2024/01/24 05:10:00;;;;;;;2.30;1.17;;;10.30;99.90;;;;;;5043501;28;20201;-78
2024/01/24 05:12:27;;;;;;;1.20;0.95;;;10.30;99.90;;;;;;5053132;28;20231;-77
2024/01/24 05:14:53;;;;;;;1.10;0.93;;;10.30;99.90;;;;;;5050390;28;20206;-80
2024/01/24 05:17:22;;;;;;;0.98;0.88;;;10.40;99.90;;;;;;5038401;28;20202;-79
2024/01/24 05:19:49;;;;;;;2.03;1.10;;;10.40;99.90;;;;;;5057234;28;20201;-78
2024/01/24 05:22:16;;;;;;;1.85;0.90;;;10.50;99.90;;;;;;5048638;28;20234;-80
2024/01/24 05:24:44;;;;;;;1.40;0.90;;;10.50;99.90;;;;;;5043616;28;20286;-80
2024/01/24 05:27:11;;;;;;;2.45;0.95;;;10.50;99.90;;;;;;5044851;28;20371;-80
2024/01/24 05:29:39;;;;;;;3.60;1.35;;;10.50;99.90;;;;;;5047841;28;20201;-80
2024/01/24 05:32:06;;;;;;;2.15;1.17;;;10.50;99.90;;;;;;5042213;28;20253;-80
2024/01/24 05:34:34;;;;;;;1.17;1.00;;;10.60;99.90;;;;;;5048818;28;20241;-79
2024/01/24 05:37:01;;;;;;;1.38;1.00;;;10.60;99.90;;;;;;5046733;28;20198;-78
2024/01/24 05:39:28;;;;;;;1.15;0.90;;;10.60;99.90;;;;;;5038026;28;20216;-79
2024/01/24 05:41:55;;;;;;;1.92;1.05;;;10.60;99.90;;;;;;5048442;28;20338;-85
2024/01/24 05:44:22;;;;;;;1.15;0.95;;;10.60;99.90;;;;;;5034510;28;20213;-80
2024/01/24 05:46:49;;;;;;;1.17;1.02;;;10.60;99.90;;;;;;5040287;28;20686;-78
2024/01/24 05:49:15;;;;;;;2.45;1.10;;;10.60;99.90;;;;;;5041290;28;20206;-78
2024/01/24 05:51:44;;;;;;;1.42;0.90;;;10.60;99.90;;;;;;5056164;28;20209;-80
2024/01/24 05:54:10;;;;;;;2.88;1.08;;;10.60;99.90;;;;;;5049130;28;20261;-80
2024/01/24 05:56:38;;;;;;;3.13;1.40;;;10.60;99.90;;;;;;5047862;28;20205;-79
2024/01/24 05:59:05;;;;;;;1.63;0.90;;;10.50;99.90;;;;;;5056749;28;20262;-79
2024/01/24 06:01:32;;;;;;;1.45;0.90;;;10.50;99.90;;;;;;5047969;28;20260;-80
2024/01/24 06:03:58;;;;;;;2.70;1.27;;;10.60;99.90;;;;;;5056094;28;20208;-80
2024/01/24 06:06:25;;;;;;;2.75;1.00;;;10.60;99.90;;;;;;5043352;28;20221;-78
2024/01/24 06:08:52;;;;;;;1.05;0.90;;;10.60;99.90;;;;;;5049761;28;20208;-79
2024/01/24 06:11:19;;;;;;;3.15;1.20;;;10.60;99.90;;;;;;5055978;28;20339;-79
2024/01/24 06:13:46;;;;;;;2.67;1.25;;;10.60;99.90;;;;;;5045784;28;20225;-79
2024/01/24 06:16:13;;;;;;;1.92;0.95;;;10.60;99.90;;;;;;5053420;28;20244;-79
2024/01/24 06:18:39;;;;;;;1.50;1.30;;;10.60;99.90;;;;;;5046832;28;20209;-79
2024/01/24 06:21:09;;;;;;;1.33;0.90;;;10.50;99.90;;;;;;5047074;28;20212;-81
2024/01/24 06:23:35;;;;;;;1.30;1.00;;;10.50;99.90;;;;;;5055904;28;20255;-81
2024/01/24 06:26:04;;;;;;;1.15;1.00;;;10.60;99.90;;;;;;5055284;28;20697;-78
2024/01/24 06:28:31;;;;;;;1.08;0.88;;;10.50;99.90;;;;;;5055816;28;20221;-78
2024/01/24 06:30:58;;;;;;;1.10;1.00;;;10.50;99.90;;;;;;5056039;28;20209;-80
2024/01/24 06:33:25;;;;;;;1.00;0.85;;;10.50;99.90;;;;;;5047182;28;20230;-79
2024/01/24 06:35:51;;;;;;;2.10;1.55;;;10.60;99.90;;;;;;5051215;28;20260;-80
2024/01/24 06:38:17;;;;;;;1.10;0.90;;;10.60;99.90;;;;;;5046342;28;20197;-78
2024/01/24 06:40:44;;;;;;;3.83;1.20;;;10.60;99.90;;;;;;5048760;28;20216;-77
2024/01/24 06:43:18;;;;;;;5.28;1.08;;;10.60;99.90;;;;;;5056322;28;20226;-79
2024/01/24 06:45:44;;;;;;;1.85;1.20;;;10.50;99.90;;;;;;5047250;28;20202;-80
2024/01/24 06:48:11;;;;;;;1.48;0.90;;;10.60;99.90;;;;;;5053633;28;20224;-77
2024/01/24 06:50:39;;;;;;;0.95;0.85;;;10.60;99.90;;;;;;5046209;28;20206;-78
2024/01/24 06:53:10;;;;;;;1.20;0.93;;;10.60;99.90;;;;;;5054339;28;20316;-79
2024/01/24 06:55:37;;;;;;;1.50;0.95;;;10.70;99.90;;;;;;5047314;28;20206;-80
2024/01/24 06:58:05;;;;;;;0.85;0.80;;;10.70;99.90;;;;;;5050329;28;20198;-80
2024/01/24 07:00:33;;;;;;;1.95;1.10;;;10.70;99.90;;;;;;5058935;28;20211;-79
2024/01/24 07:03:00;;;;;;;3.10;1.27;;;10.70;99.90;;;;;;5054663;28;20242;-79
2024/01/24 07:05:27;;;;;;;1.33;1.02;;;10.70;99.90;;;;;;5054643;28;20209;-76
2024/01/24 07:07:54;;;;;;;1.30;1.00;;;10.70;99.90;;;;;;5046653;28;20221;-77
2024/01/24 07:10:21;;;;;;;1.48;0.90;;;10.70;99.90;;;;;;5053648;28;20586;-78
2024/01/24 07:12:48;;;;;;;1.08;0.98;;;10.80;99.90;;;;;;5044080;28;20320;-77
2024/01/24 07:15:15;;;;;;;1.98;1.05;;;10.80;99.90;;;;;;5043740;28;20217;-77
2024/01/24 07:17:44;;;;;;;0.80;0.70;;;10.80;99.90;;;;;;5046705;28;20212;-77
2024/01/24 07:20:12;;;;;;;1.85;1.20;;;10.80;99.90;;;;;;5046844;28;20825;-77
2024/01/24 07:22:39;;;;;;;0.80;0.70;;;10.80;99.90;;;;;;5052679;28;20225;-77
2024/01/24 07:25:07;;;;;;;1.20;0.90;;;10.80;99.90;;;;;;5046176;28;20208;-77
2024/01/24 07:27:34;;;;;;;1.80;0.90;;;10.80;99.90;;;;;;5040284;28;20859;-78
2024/01/24 07:30:03;;;;;;;0.90;0.80;;;10.80;99.90;;;;;;5053488;28;20205;-78
2024/01/24 07:32:30;;;;;;;1.35;0.90;;;10.80;99.90;;;;;;5043066;28;20686;-83
2024/01/24 07:34:58;;;;;;;0.90;0.70;;;10.80;99.90;;;;;;5056758;28;20213;-80
2024/01/24 07:37:25;;;;;;;1.23;1.08;;;10.90;99.90;;;;;;5054364;28;20199;-80
2024/01/24 07:39:53;;;;;;;1.20;0.82;;;10.90;99.90;;;;;;5044671;28;20205;-79
2024/01/24 07:42:20;;;;;;;1.10;0.90;;;10.90;99.90;;;;;;5054078;28;20252;-79
2024/01/24 07:44:47;;;;;;;2.60;1.25;;;10.90;99.90;;;;;;5060226;28;20578;-79
2024/01/24 07:47:15;;;;;;;1.20;1.10;;;10.90;99.90;;;;;;5050996;28;20275;-77
2024/01/24 07:49:42;;;;;;;1.27;1.02;;;10.90;99.90;;;;;;5053476;28;20216;-81
2024/01/24 07:52:10;;;;;;;3.05;0.98;;;10.90;99.90;;;;;;5046123;28;20254;-76
2024/01/24 07:54:37;;;;;;;1.75;0.70;;;11.00;99.90;;;;;;5052263;28;20206;-76
2024/01/24 07:57:04;;;;;;;1.10;1.00;;;11.00;99.90;;;;;;5055986;28;20198;-78
2024/01/24 07:59:31;;;;;;;2.45;0.90;;;11.00;99.90;;;;;;5062637;28;20213;-79
2024/01/24 08:01:58;;;;;;;2.08;0.80;;;11.00;99.90;;;;;;5057630;28;20234;-81
2024/01/24 08:04:25;;;;;;;1.15;0.88;;;11.10;99.90;;;;;;5062060;28;20211;-83
2024/01/24 08:06:52;;;;;;;1.17;1.08;;;11.10;99.90;;;;;;5069255;28;20233;-82
2024/01/24 08:09:20;;;;;;;1.20;0.70;;;11.10;99.90;;;;;;5057681;28;20686;-83
2024/01/24 08:11:47;;;;;;;1.00;0.70;;;11.20;99.90;;;;;;5058882;28;20233;-81
2024/01/24 08:14:14;;;;;;;1.10;1.00;;;11.20;99.90;;;;;;5057349;28;20189;-83
2024/01/24 08:16:41;;;;;;;1.10;0.80;;;11.20;99.90;;;;;;5058083;28;20268;-81
2024/01/24 08:19:07;;;;;;;1.00;0.80;;;11.30;99.90;;;;;;5062166;28;20193;-83
2024/01/24 08:21:34;;;;;;;0.98;0.80;;;11.30;99.90;;;;;;5049286;28;20214;-77
2024/01/24 08:24:01;;;;;;;1.40;0.70;;;11.40;99.90;;;;;;5048921;28;20206;-77
2024/01/24 08:26:29;;;;;;;1.30;1.05;;;11.40;99.90;;;;;;5048786;28;20209;-78
2024/01/24 08:28:59;;;;;;;0.95;0.80;;;11.40;99.90;;;;;;5054700;28;20597;-77
2024/01/24 08:31:25;;;;;;;0.80;0.60;;;11.40;99.90;;;;;;5052661;28;20203;-78
2024/01/24 08:33:52;;;;;;;0.80;0.70;;;11.50;99.90;;;;;;5047003;28;20232;-78
2024/01/24 08:36:19;;;;;;;0.90;0.80;;;11.60;99.90;;;;;;5054066;28;20595;-78
2024/01/24 08:38:46;;;;;;;0.80;0.70;;;11.60;99.90;;;;;;5044679;28;20217;-77
2024/01/24 08:41:13;;;;;;;1.00;0.80;;;11.60;99.90;;;;;;5043891;28;20210;-77
2024/01/24 08:43:41;;;;;;;0.80;0.60;;;11.60;99.90;;;;;;5045178;28;20225;-77
2024/01/24 08:46:08;;;;;;;0.80;0.70;;;11.70;99.90;;;;;;5043415;28;20229;-77
2024/01/24 08:48:34;;;;;;;0.80;0.70;;;11.70;99.90;;;;;;5046372;28;20619;-77
2024/01/24 08:51:01;;;;;;;0.80;0.70;;;11.70;99.90;;;;;;5037575;28;20221;-77
2024/01/24 08:53:28;;;;;;;0.80;0.73;;;11.70;99.90;;;;;;5040234;28;20234;-78
2024/01/24 08:55:57;;;;;;;0.95;0.70;;;11.70;99.90;;;;;;5040516;28;20201;-79
2024/01/24 08:58:23;;;;;;;0.80;0.60;;;11.70;99.90;;;;;;5045859;28;20292;-77
2024/01/24 09:00:52;;;;;;;0.80;0.60;;;11.80;99.90;;;;;;5046075;28;20214;-77
2024/01/24 09:03:18;;;;;;;0.80;0.75;;;11.80;99.90;;;;;;5043411;28;20229;-77
2024/01/24 09:05:46;;;;;;;1.02;0.80;;;11.80;99.90;;;;;;5048764;28;20653;-82
2024/01/24 09:08:12;;;;;;;0.80;0.60;;;11.80;99.90;;;;;;5044107;28;20276;-81
2024/01/24 09:10:39;;;;;;;1.80;0.80;;;11.90;99.90;;;;;;5051496;28;20209;-82
2024/01/24 09:13:06;;;;;;;0.77;0.60;;;11.90;99.90;;;;;;5047199;28;20222;-82
2024/01/24 09:15:33;;;;;;;1.00;0.75;;;11.90;99.90;;;;;;5047333;28;20653;-76
2024/01/24 09:18:01;;;;;;;1.10;0.70;;;11.90;99.90;;;;;;5048207;28;20199;-78
2024/01/24 09:20:28;;;;;;;0.80;0.70;;;11.90;99.90;;;;;;5045869;28;20208;-78
2024/01/24 09:22:55;;;;;;;0.80;0.70;;;11.90;99.90;;;;;;5053902;28;20227;-79
2024/01/24 09:25:21;;;;;;;1.10;0.80;;;11.90;99.90;;;;;;5057367;28;20198;-78
2024/01/24 09:27:48;;;;;;;0.82;0.70;;;11.90;99.90;;;;;;5049501;28;20224;-79
2024/01/24 09:30:15;;;;;;;0.80;0.70;;;12.00;99.90;;;;;;5053605;28;20207;-79
2024/01/24 09:32:42;;;;;;;0.80;0.70;;;11.90;99.90;;;;;;5051982;28;20609;-79
2024/01/24 09:35:10;;;;;;;0.70;0.60;;;11.90;99.90;;;;;;5043085;28;20205;-78
2024/01/24 09:37:37;;;;;;;0.80;0.60;;;11.90;99.90;;;;;;5050266;28;20206;-78
2024/01/24 09:40:06;;;;;;;0.80;0.60;;;11.80;99.90;;;;;;5046255;28;20674;-76
2024/01/24 09:42:37;;;;;;;0.80;0.73;;;11.80;99.90;;;;;;5050812;28;20643;-78
2024/01/24 09:45:08;;;;;;;0.88;0.75;;;11.80;99.90;;;;;;5047235;28;20210;-79
2024/01/24 09:47:35;;;;;;;0.80;0.60;;;11.80;99.90;;;;;;5053015;28;20989;-79
2024/01/24 09:50:04;;;;;;;0.70;0.60;;;11.80;99.90;;;;;;5049919;28;20210;-80
2024/01/24 09:52:33;;;;;;;0.80;0.70;;;11.70;99.90;;;;;;5045393;28;20265;-77
2024/01/24 09:55:04;;;;;;;0.80;0.70;;;11.80;99.90;;;;;;5051874;28;20690;-80
2024/01/24 09:57:33;;;;;;;0.80;0.70;;;11.70;99.90;;;;;;5058114;28;20273;-79
2024/01/24 10:00:00;;;;;;;0.70;0.70;;;11.80;99.90;;;;;;5050954;28;20276;-79
2024/01/24 10:02:27;;;;;;;0.88;0.80;;;11.70;99.90;;;;;;5059640;28;20776;-80
2024/01/24 10:04:55;;;;;;;0.75;0.60;;;11.80;99.90;;;;;;5052401;28;20297;-79
2024/01/24 10:07:22;;;;;;;0.80;0.70;;;12.00;99.90;;;;;;5052610;28;20211;-79
2024/01/24 10:10:04;;;;;;;0.80;0.75;;;12.00;99.90;;;;;;5055326;28;20210;-77
2024/01/24 10:12:31;;;;;;;0.70;0.60;;;12.10;99.90;;;;;;5049444;28;20699;-76
2024/01/24 10:14:58;;;;;;;0.85;0.77;;;12.20;99.90;;;;;;5042455;28;20225;-77
2024/01/24 10:17:25;;;;;;;0.80;0.65;;;12.10;99.90;;;;;;5048048;28;20205;-79
2024/01/24 10:19:52;;;;;;;0.70;0.60;;;12.10;99.90;;;;;;5054565;28;20239;-82
2024/01/24 10:22:21;;;;;;;0.80;0.60;;;12.10;99.90;;;;;;5048882;28;20222;-79
2024/01/24 10:24:49;;;;;;;0.80;0.60;;;12.20;99.90;;;;;;5046081;28;20230;-80
2024/01/24 10:27:16;;;;;;;0.80;0.60;;;12.80;99.90;;;;;;5045112;28;20644;-80
2024/01/24 10:29:44;;;;;;;1.00;0.70;;;13.70;99.90;;;;;;5052823;28;20200;-81
2024/01/24 10:32:10;;;;;;;0.90;0.60;;;14.80;99.90;;;;;;5052701;28;20775;-80
2024/01/24 10:34:37;;;;;;;0.80;0.60;;;15.60;99.90;;;;;;5049242;28;20465;-81
2024/01/24 10:37:06;;;;;;;0.80;0.60;;;15.50;99.90;;;;;;5050601;28;20474;-81
2024/01/24 10:39:35;;;;;;;0.80;0.60;;;15.00;99.90;;;;;;5052842;28;20468;-82
2024/01/24 10:42:06;;;;;;;0.90;0.70;;;14.70;99.90;;;;;;5051230;28;21006;-81
2024/01/24 10:44:34;;;;;;;0.80;0.60;;;14.30;99.90;;;;;;5052447;28;20460;-81
2024/01/24 10:47:02;;;;;;;0.80;0.70;;;14.10;99.90;;;;;;5047233;28;20470;-80
2024/01/24 10:49:31;;;;;;;0.80;0.60;;;14.10;99.90;;;;;;5051970;28;20491;-81
2024/01/24 10:51:58;;;;;;;1.00;0.70;;;13.80;99.90;;;;;;5052138;28;20483;-81
2024/01/24 10:54:27;;;;;;;1.00;0.60;;;13.70;99.90;;;;;;5055388;28;20485;-81
2024/01/24 10:56:56;;;;;;;1.13;0.70;;;13.70;99.90;;;;;;5056517;28;20477;-81
2024/01/24 10:59:26;;;;;;;0.80;0.80;;;13.40;99.90;;;;;;5051197;28;20514;-81
2024/01/24 11:01:53;;;;;;;0.80;0.60;;;13.20;99.90;;;;;;5053403;28;20502;-81
2024/01/24 11:04:22;;;;;;;0.90;0.70;;;13.00;99.90;;;;;;5050239;28;20662;-80
2024/01/24 11:06:53;;;;;;;0.80;0.70;;;13.00;99.90;;;;;;5047320;28;20201;-81
2024/01/24 11:09:27;;;;;;;0.80;0.70;;;12.90;99.90;;;;;;5051463;28;20228;-80
2024/01/24 11:11:57;;;;;;;0.90;0.70;;;12.70;99.90;;;;;;5047935;28;20223;-81
2024/01/24 11:14:31;;;;;;;0.80;0.70;;;12.60;99.90;;;;;;5048367;28;20629;-81
2024/01/24 11:16:59;;;;;;;0.88;0.70;;;12.50;99.90;;;;;;5049134;28;20203;-80
2024/01/24 11:19:27;;;;;;;0.80;0.60;;;12.30;99.90;;;;;;5052979;28;20285;-81
2024/01/24 11:21:55;;;;;;;1.48;0.93;;;12.20;99.90;;;;;;5049559;28;20220;-81
2024/01/24 11:24:50;;;;;;;2.85;0.70;;;12.20;99.90;;;;;;5053029;28;20286;-81
2024/01/24 11:27:32;;;;;;;0.80;0.70;;;12.10;99.90;;;;;;5048525;28;20202;-81
2024/01/24 11:30:04;;;;;;;0.80;0.80;;;12.00;99.90;;;;;;5050620;28;20620;-81
2024/01/24 11:33:01;;;;;;;0.90;0.70;;;12.00;99.90;;;;;;5050538;28;20236;-82
2024/01/24 11:35:32;;;;;;;0.80;0.70;;;12.00;99.90;;;;;;5051296;28;20219;-82
2024/01/24 11:38:01;;;;;;;0.70;0.60;;;12.10;99.90;;;;;;5053882;28;20206;-82
2024/01/24 11:40:28;;;;;;;1.00;0.70;;;12.10;99.90;;;;;;5050452;28;20692;-82
2024/01/24 11:42:55;;;;;;;0.80;0.60;;;12.20;99.90;;;;;;5051805;28;20235;-83
2024/01/24 11:45:25;;;;;;;0.80;0.70;;;12.20;99.90;;;;;;5051257;28;20206;-81
2024/01/24 11:47:52;;;;;;;1.00;0.75;;;12.20;99.90;;;;;;5058130;28;20205;-82
2024/01/24 11:50:19;;;;;;;0.80;0.60;;;12.20;99.90;;;;;;5051922;28;20259;-82
2024/01/24 11:52:47;;;;;;;0.80;0.70;;;12.20;99.90;;;;;;5058530;28;20635;-78
2024/01/24 11:55:14;;;;;;;2.17;0.90;;;12.20;99.90;;;;;;5053068;28;20235;-78
2024/01/24 11:57:41;;;;;;;0.90;0.60;;;12.20;99.90;;;;;;5051370;28;20203;-78
2024/01/24 12:00:09;;;;;;;1.08;0.60;;;12.20;99.90;;;;;;5059035;28;20213;-78
2024/01/24 12:02:37;;;;;;;1.08;0.70;;;12.30;99.90;;;;;;5059279;28;20234;-78
2024/01/24 12:05:06;;;;;;;0.70;0.60;;;12.40;99.90;;;;;;5053936;28;20214;-78
2024/01/24 12:07:32;;;;;;;1.55;0.70;;;12.40;99.90;;;;;;5055332;28;20205;-78
2024/01/24 12:09:59;;;;;;;2.10;0.70;;;12.50;99.90;;;;;;5058658;28;20219;-78
2024/01/24 12:12:27;;;;;;;0.80;0.70;;;12.50;99.90;;;;;;5059331;28;20602;-78
2024/01/24 12:14:55;;;;;;;0.90;0.70;;;12.50;99.90;;;;;;5059490;28;20199;-78
2024/01/24 12:17:22;;;;;;;0.90;0.77;;;12.60;99.90;;;;;;5055055;28;20210;-78
2024/01/24 12:19:50;;;;;;;0.80;0.63;;;12.50;99.90;;;;;;5057810;28;20203;-78
2024/01/24 12:22:17;;;;;;;0.80;0.80;;;12.40;99.90;;;;;;5057373;28;20233;-78
2024/01/24 12:24:44;;;;;;;2.22;0.70;;;12.40;99.90;;;;;;5060552;28;20198;-78
2024/01/24 12:27:11;;;;;;;0.93;0.82;;;12.30;99.90;;;;;;5057442;28;20213;-77
2024/01/24 12:29:38;;;;;;;1.27;0.90;;;12.20;99.90;;;;;;5055894;28;20679;-78
2024/01/24 12:32:06;;;;;;;0.80;0.70;;;12.30;99.90;;;;;;5048533;28;20227;-81
2024/01/24 12:34:33;;;;;;;0.88;0.73;;;12.30;99.90;;;;;;5053222;28;20369;-81
2024/01/24 12:37:01;;;;;;;0.82;0.75;;;12.30;99.90;;;;;;5050429;28;20206;-78
2024/01/24 12:39:29;;;;;;;1.00;0.90;;;12.30;99.90;;;;;;5048891;28;20207;-77
2024/01/24 12:41:55;;;;;;;1.30;0.80;;;12.20;99.90;;;;;;5052164;28;20233;-79
2024/01/24 12:44:22;;;;;;;1.10;0.73;;;12.20;99.90;;;;;;5046575;28;20600;-80
2024/01/24 12:46:55;;;;;;;0.95;0.80;;;12.20;99.90;;;;;;5050604;28;20213;-79
2024/01/24 12:49:22;;;;;;;0.80;0.70;;;12.10;99.90;;;;;;5049746;28;20255;-79
2024/01/24 12:51:49;;;;;;;0.85;0.75;;;12.10;99.90;;;;;;5054221;28;20214;-79